Time;durP1;ratioP1;P1;durP2;ratioP2;P2;SDS_P1;SDS_P2;PMS_P1;PMS_P2;Temp;Humidity;BMP_temperature;BMP_pressure;BME280_temperature;BME280_humidity;BME280_pressure;Samples;Min_cycle;Max_cycle;Signal;HPM_P1;HPM_P2
2023/08/28 00:01:03;;;;;;;6.20;1.13;;;16.50;99.90;;;;;;5054301;28;20457;-90
2023/08/28 00:03:32;;;;;;;2.40;1.13;;;16.50;99.90;;;;;;5054497;28;20915;-89
2023/08/28 00:06:01;;;;;;;3.00;1.50;;;16.60;99.90;;;;;;5054567;28;20437;-90
2023/08/28 00:08:28;;;;;;;2.67;1.40;;;16.60;99.90;;;;;;5054525;28;20461;-90
2023/08/28 00:10:55;;;;;;;2.80;1.10;;;16.50;99.90;;;;;;5053975;28;20438;-89
2023/08/28 00:13:24;;;;;;;3.03;1.17;;;16.50;99.90;;;;;;5054203;28;20437;-89
2023/08/28 00:15:51;;;;;;;5.00;1.20;;;16.50;99.90;;;;;;5054302;28;20499;-89
2023/08/28 00:18:19;;;;;;;3.60;1.63;;;16.50;99.90;;;;;;5053772;28;20439;-89
2023/08/28 00:20:46;;;;;;;4.57;1.50;;;16.50;99.90;;;;;;5054300;28;20518;-84
2023/08/28 00:23:19;;;;;;;4.00;1.37;;;16.50;99.90;;;;;;5053665;28;20528;-90
2023/08/28 00:25:46;;;;;;;2.63;1.20;;;16.40;99.90;;;;;;5053548;28;20426;-90
2023/08/28 00:28:14;;;;;;;2.63;1.33;;;16.30;99.90;;;;;;5054036;28;20515;-88
2023/08/28 00:30:41;;;;;;;2.77;1.40;;;16.30;99.90;;;;;;5053656;28;20587;-89
2023/08/28 00:33:10;;;;;;;2.80;1.43;;;16.30;99.90;;;;;;5053699;28;20437;-89
2023/08/28 00:35:38;;;;;;;2.80;1.30;;;16.30;99.90;;;;;;5054305;28;20503;-89
2023/08/28 00:38:13;;;;;;;3.37;1.63;;;16.40;99.90;;;;;;5053918;28;20764;-89
2023/08/28 00:40:43;;;;;;;2.80;1.60;;;16.40;99.90;;;;;;5053571;28;20461;-90
2023/08/28 00:43:13;;;;;;;2.50;1.30;;;16.40;99.90;;;;;;5063554;28;20842;-89
2023/08/28 00:45:44;;;;;;;3.43;1.63;;;16.50;99.90;;;;;;5073344;28;20433;-89
2023/08/28 00:48:13;;;;;;;3.00;1.63;;;16.40;99.90;;;;;;5072951;28;20428;-89
2023/08/28 00:50:43;;;;;;;8.80;6.13;;;16.40;99.90;;;;;;5073362;28;20428;-87
2023/08/28 00:53:19;;;;;;;6.07;4.13;;;16.30;99.90;;;;;;5073435;28;20843;-89
2023/08/28 00:55:48;;;;;;;4.30;1.73;;;16.30;99.90;;;;;;5072490;28;20424;-88
2023/08/28 00:58:18;;;;;;;2.47;1.20;;;16.30;99.90;;;;;;5072388;28;20484;-89
2023/08/28 01:00:48;;;;;;;3.60;1.77;;;16.30;99.90;;;;;;5073335;28;20530;-89
2023/08/28 01:03:17;;;;;;;2.80;1.50;;;16.30;99.90;;;;;;5072298;28;20443;-90
2023/08/28 01:06:01;;;;;;;3.20;1.40;;;16.30;99.90;;;;;;5072888;28;20447;-90
2023/08/28 01:08:35;;;;;;;3.20;1.50;;;16.30;99.90;;;;;;5073129;28;20433;-90
2023/08/28 01:11:13;;;;;;;3.40;1.63;;;16.20;99.90;;;;;;5071699;28;20424;-90
2023/08/28 01:13:51;;;;;;;5.40;1.40;;;16.20;99.90;;;;;;5072423;28;20436;-91
2023/08/28 01:16:24;;;;;;;3.10;1.83;;;16.20;99.90;;;;;;5073213;28;20432;-91
2023/08/28 01:18:53;;;;;;;3.80;1.50;;;16.20;99.90;;;;;;5073019;28;20941;-90
2023/08/28 01:21:21;;;;;;;2.30;1.30;;;16.20;99.90;;;;;;5073701;28;20864;-90
2023/08/28 01:23:59;;;;;;;2.77;1.57;;;16.20;99.90;;;;;;5072747;28;20471;-90
2023/08/28 01:26:28;;;;;;;2.50;1.40;;;16.20;99.90;;;;;;5063495;28;20794;-87
2023/08/28 01:28:56;;;;;;;2.67;1.30;;;16.30;99.90;;;;;;5053470;28;20464;-90
2023/08/28 01:31:24;;;;;;;3.40;1.70;;;16.30;99.90;;;;;;5053002;28;20491;-90
2023/08/28 01:34:00;;;;;;;2.73;1.50;;;16.30;99.90;;;;;;5073209;28;20572;-90
2023/08/28 01:36:36;;;;;;;8.50;2.10;;;16.30;99.90;;;;;;5073005;28;20928;-90
2023/08/28 01:39:17;;;;;;;3.17;1.80;;;16.30;99.90;;;;;;5073269;28;20790;-90
2023/08/28 01:41:47;;;;;;;2.83;1.53;;;16.30;99.90;;;;;;5070706;28;20420;-90
2023/08/28 01:44:16;;;;;;;5.43;1.60;;;16.30;99.90;;;;;;5053341;28;20449;-90
2023/08/28 01:46:44;;;;;;;2.60;1.30;;;16.30;99.90;;;;;;5053202;28;20768;-90
2023/08/28 01:49:11;;;;;;;2.90;1.43;;;16.30;99.90;;;;;;5053082;28;20464;-85
2023/08/28 01:51:51;;;;;;;2.57;1.30;;;16.30;99.90;;;;;;5053773;28;20832;-91
2023/08/28 01:54:18;;;;;;;3.00;1.77;;;16.30;99.90;;;;;;5072756;28;20975;-90
2023/08/28 01:56:48;;;;;;;4.20;1.80;;;16.30;99.90;;;;;;5073148;28;20451;-90
2023/08/28 01:59:21;;;;;;;4.10;1.90;;;16.40;99.90;;;;;;5072393;28;20551;-91
2023/08/28 02:01:50;;;;;;;3.70;1.40;;;16.40;99.90;;;;;;5072332;28;20430;-90
2023/08/28 02:04:17;;;;;;;3.93;1.70;;;16.40;99.90;;;;;;5073101;28;20451;-90
2023/08/28 02:06:50;;;;;;;3.40;1.70;;;16.40;99.90;;;;;;5073010;28;20439;-91
2023/08/28 02:09:22;;;;;;;3.57;1.70;;;16.40;99.90;;;;;;5072984;28;20425;-90
2023/08/28 02:11:51;;;;;;;4.37;1.60;;;16.30;99.90;;;;;;5071695;28;21000;-91
2023/08/28 02:14:21;;;;;;;3.23;1.40;;;16.30;99.90;;;;;;5072093;28;20451;-91
2023/08/28 02:16:53;;;;;;;4.77;1.67;;;16.30;99.90;;;;;;5072822;28;20504;-91
2023/08/28 02:19:22;;;;;;;4.70;1.70;;;16.30;99.90;;;;;;5072455;28;20434;-91
2023/08/28 02:21:56;;;;;;;2.87;1.50;;;16.30;99.90;;;;;;5072298;28;20432;-91
2023/08/28 02:24:29;;;;;;;2.60;1.23;;;16.30;99.90;;;;;;5072538;28;20434;-91
2023/08/28 02:27:00;;;;;;;2.70;1.37;;;16.30;99.90;;;;;;5074423;28;20424;-90
2023/08/28 02:29:32;;;;;;;3.43;1.40;;;16.30;99.90;;;;;;5076710;28;20456;-90
2023/08/28 02:32:08;;;;;;;3.20;1.70;;;16.30;99.90;;;;;;5072293;28;20429;-91
2023/08/28 02:34:37;;;;;;;3.27;1.60;;;16.20;99.90;;;;;;5076215;28;20426;-91
2023/08/28 02:37:06;;;;;;;3.30;1.60;;;16.20;99.90;;;;;;5075989;28;20490;-91
2023/08/28 02:39:38;;;;;;;3.60;1.73;;;16.10;99.90;;;;;;5076118;28;20819;-92
2023/08/28 02:42:08;;;;;;;6.43;1.70;;;16.10;99.90;;;;;;5075390;28;20433;-92
2023/08/28 02:44:37;;;;;;;2.73;1.57;;;16.10;99.90;;;;;;5075767;28;20440;-89
2023/08/28 02:47:05;;;;;;;2.80;1.27;;;16.10;99.90;;;;;;5075626;28;20515;-90
2023/08/28 02:49:35;;;;;;;2.73;1.63;;;16.10;99.90;;;;;;5075651;28;20432;-90
2023/08/28 02:52:03;;;;;;;3.30;1.23;;;16.10;99.90;;;;;;5075580;28;20440;-92
2023/08/28 02:54:33;;;;;;;2.67;1.10;;;16.00;99.90;;;;;;5075845;28;20432;-91
2023/08/28 02:57:07;;;;;;;2.40;1.30;;;16.00;99.90;;;;;;5075573;28;20428;-91
2023/08/28 02:59:35;;;;;;;3.60;1.67;;;16.00;99.90;;;;;;5074920;28;20798;-91
2023/08/28 03:02:02;;;;;;;3.43;1.40;;;15.90;99.90;;;;;;5075067;28;20436;-91
2023/08/28 03:04:29;;;;;;;2.73;1.50;;;16.00;99.90;;;;;;5075411;28;20439;-91
2023/08/28 03:06:59;;;;;;;3.83;1.80;;;16.00;99.90;;;;;;5075437;28;20439;-91
2023/08/28 03:09:29;;;;;;;3.47;1.90;;;15.90;99.90;;;;;;5074805;28;20451;-90
2023/08/28 03:11:56;;;;;;;3.07;1.40;;;15.90;99.90;;;;;;5074749;28;20973;-90
2023/08/28 03:14:25;;;;;;;3.10;1.80;;;15.90;99.90;;;;;;5075350;28;20528;-91
2023/08/28 03:16:55;;;;;;;4.40;1.30;;;15.90;99.90;;;;;;5075593;28;20494;-91
2023/08/28 03:19:23;;;;;;;2.63;1.37;;;15.90;99.90;;;;;;5075178;28;20477;-91
2023/08/28 03:21:55;;;;;;;3.03;1.20;;;15.90;99.90;;;;;;5074214;28;20444;-90
2023/08/28 03:24:29;;;;;;;3.60;1.50;;;15.90;99.90;;;;;;5075560;28;20474;-89
2023/08/28 03:26:58;;;;;;;3.00;1.20;;;15.90;99.90;;;;;;5074987;28;20444;-90
2023/08/28 03:29:27;;;;;;;3.80;1.30;;;15.90;99.90;;;;;;5074937;28;20435;-91
2023/08/28 03:31:55;;;;;;;2.97;1.30;;;15.90;99.90;;;;;;5061753;28;20450;-91
2023/08/28 03:34:27;;;;;;;2.50;1.07;;;15.90;99.90;;;;;;5054738;28;20919;-90
2023/08/28 03:36:57;;;;;;;2.40;1.30;;;15.80;99.90;;;;;;5055070;28;20821;-90
2023/08/28 03:39:24;;;;;;;3.27;1.70;;;15.80;99.90;;;;;;5055021;28;20441;-90
2023/08/28 03:41:52;;;;;;;4.33;1.43;;;15.80;99.90;;;;;;5055003;28;20865;-89
2023/08/28 03:44:25;;;;;;;3.17;1.50;;;15.80;99.90;;;;;;5054704;28;20491;-90
2023/08/28 03:46:55;;;;;;;6.63;1.50;;;15.80;99.90;;;;;;5054699;28;20418;-90
2023/08/28 03:49:22;;;;;;;2.90;1.70;;;15.80;99.90;;;;;;5054945;28;20794;-90
2023/08/28 03:51:49;;;;;;;4.73;1.60;;;15.70;99.90;;;;;;5054804;28;20470;-90
2023/08/28 03:54:17;;;;;;;2.60;1.13;;;15.70;99.90;;;;;;5054681;28;20425;-90
2023/08/28 03:56:44;;;;;;;3.77;1.60;;;15.70;99.90;;;;;;5054735;28;20434;-89
2023/08/28 03:59:12;;;;;;;3.70;1.60;;;15.70;99.90;;;;;;5054281;28;20469;-90
2023/08/28 04:01:46;;;;;;;2.53;1.20;;;15.70;99.90;;;;;;5064436;28;20549;-90
2023/08/28 04:04:14;;;;;;;2.77;1.40;;;15.70;99.90;;;;;;5074272;28;20413;-90
2023/08/28 04:06:46;;;;;;;2.67;1.57;;;15.70;99.90;;;;;;5074504;28;20429;-90
2023/08/28 04:09:15;;;;;;;3.30;1.80;;;15.70;99.90;;;;;;5073649;28;20510;-90
2023/08/28 04:11:43;;;;;;;2.40;1.30;;;15.60;99.90;;;;;;5072206;28;20443;-90
2023/08/28 04:14:11;;;;;;;3.43;2.00;;;15.60;99.90;;;;;;5073836;28;20446;-90
2023/08/28 04:16:38;;;;;;;6.00;1.70;;;15.60;99.90;;;;;;5073971;28;20793;-90
2023/08/28 04:19:07;;;;;;;3.00;1.60;;;15.60;99.90;;;;;;5074125;28;20853;-91
2023/08/28 04:21:34;;;;;;;4.60;1.80;;;15.70;99.90;;;;;;5073568;28;20559;-89
2023/08/28 04:24:04;;;;;;;4.47;1.53;;;15.70;99.90;;;;;;5073665;28;20439;-90
2023/08/28 04:26:33;;;;;;;4.13;1.73;;;15.60;99.90;;;;;;5074125;28;20853;-91
2023/08/28 04:29:02;;;;;;;5.00;1.70;;;15.70;99.90;;;;;;5074053;28;20437;-92
2023/08/28 04:31:30;;;;;;;4.30;1.53;;;15.60;99.90;;;;;;5073569;28;20523;-91
2023/08/28 04:33:57;;;;;;;3.70;1.53;;;15.60;99.90;;;;;;5074012;28;20433;-91
2023/08/28 04:36:26;;;;;;;2.90;1.87;;;15.60;99.90;;;;;;5073659;28;20523;-90
2023/08/28 04:38:55;;;;;;;3.43;2.07;;;15.60;99.90;;;;;;5073878;28;20481;-92
2023/08/28 04:41:23;;;;;;;2.60;1.50;;;15.60;99.90;;;;;;5073048;28;20472;-91
2023/08/28 04:43:52;;;;;;;3.50;1.80;;;15.60;99.90;;;;;;5073422;28;20451;-90
2023/08/28 04:46:26;;;;;;;2.63;1.50;;;15.60;99.90;;;;;;5073430;28;21137;-91
2023/08/28 04:48:53;;;;;;;2.67;1.30;;;15.60;99.90;;;;;;5072734;28;20896;-90
2023/08/28 04:51:22;;;;;;;4.93;1.67;;;15.60;99.90;;;;;;5073009;28;20437;-90
2023/08/28 04:53:50;;;;;;;2.87;1.70;;;15.60;99.90;;;;;;5073627;28;20534;-91
2023/08/28 04:56:18;;;;;;;3.10;1.40;;;15.60;99.90;;;;;;5073590;28;20433;-90
2023/08/28 04:58:45;;;;;;;4.40;1.90;;;15.70;99.90;;;;;;5073581;28;20506;-89
2023/08/28 05:01:15;;;;;;;3.80;1.80;;;15.70;99.90;;;;;;5073118;28;20476;-90
2023/08/28 05:03:51;;;;;;;3.53;1.90;;;15.70;99.90;;;;;;5073508;28;20792;-90
2023/08/28 05:06:21;;;;;;;3.00;1.50;;;15.70;99.90;;;;;;5073292;28;20846;-90
2023/08/28 05:08:52;;;;;;;3.23;1.80;;;15.60;99.90;;;;;;5059661;28;20430;-89
2023/08/28 05:11:19;;;;;;;3.73;2.17;;;15.60;99.90;;;;;;5053367;28;20503;-89
2023/08/28 05:13:46;;;;;;;4.83;2.10;;;15.60;99.90;;;;;;5052960;28;20440;-90
2023/08/28 05:16:14;;;;;;;3.07;1.90;;;15.70;99.90;;;;;;5052955;28;20792;-90
2023/08/28 05:18:41;;;;;;;2.70;1.70;;;15.60;99.90;;;;;;5053417;28;20768;-91
2023/08/28 05:21:08;;;;;;;4.10;1.90;;;15.70;99.90;;;;;;5052923;28;20864;-90
2023/08/28 05:23:36;;;;;;;3.70;1.93;;;15.60;99.90;;;;;;5053060;28;20447;-91
2023/08/28 05:26:08;;;;;;;4.03;1.90;;;15.70;99.90;;;;;;5053088;28;20434;-90
2023/08/28 05:28:38;;;;;;;4.10;2.23;;;15.70;99.90;;;;;;5052948;28;20508;-90
2023/08/28 05:31:06;;;;;;;3.20;1.97;;;15.70;99.90;;;;;;5053276;28;20438;-89
2023/08/28 05:33:37;;;;;;;5.07;2.40;;;15.60;99.90;;;;;;5053187;28;20503;-91
2023/08/28 05:36:07;;;;;;;5.50;2.23;;;15.70;99.90;;;;;;5054974;28;20441;-90
2023/08/28 05:38:38;;;;;;;4.60;2.17;;;15.60;99.90;;;;;;5047499;28;20441;-89
2023/08/28 05:41:07;;;;;;;5.90;2.30;;;15.70;99.90;;;;;;5050468;28;20522;-86
2023/08/28 05:43:34;;;;;;;5.03;2.50;;;15.70;99.90;;;;;;5051321;28;20829;-89
2023/08/28 05:46:01;;;;;;;4.50;2.07;;;15.70;99.90;;;;;;5051272;28;20495;-89
2023/08/28 05:48:28;;;;;;;5.97;3.00;;;15.70;99.90;;;;;;5050341;28;20549;-90
2023/08/28 05:50:55;;;;;;;5.33;3.10;;;15.70;99.90;;;;;;5050533;28;20445;-88
2023/08/28 05:53:22;;;;;;;4.30;2.60;;;15.70;99.90;;;;;;5051842;28;20851;-91
2023/08/28 05:55:55;;;;;;;3.87;2.47;;;15.70;99.90;;;;;;5048818;28;20464;-88
2023/08/28 05:58:23;;;;;;;4.63;2.60;;;15.70;99.90;;;;;;5051278;28;20565;-91
2023/08/28 06:00:50;;;;;;;6.90;2.93;;;15.70;99.90;;;;;;5058504;28;20863;-90
2023/08/28 06:03:17;;;;;;;5.50;2.40;;;15.70;99.90;;;;;;5053708;28;20429;-91
2023/08/28 06:05:44;;;;;;;3.73;2.43;;;15.70;99.90;;;;;;5055101;28;20438;-91
2023/08/28 06:08:11;;;;;;;4.00;2.30;;;15.70;99.90;;;;;;5054415;28;20495;-90
2023/08/28 06:10:40;;;;;;;7.23;2.97;;;15.70;99.90;;;;;;5057215;28;20491;-92
2023/08/28 06:13:07;;;;;;;4.53;2.20;;;15.70;99.90;;;;;;5054685;28;20448;-91
2023/08/28 06:15:36;;;;;;;4.17;3.20;;;15.70;99.90;;;;;;5055721;28;20493;-90
2023/08/28 06:18:09;;;;;;;4.50;4.10;;;15.70;99.90;;;;;;5053445;28;20450;-90
2023/08/28 06:20:41;;;;;;;3.70;2.60;;;15.70;99.90;;;;;;5054092;28;20430;-90
2023/08/28 06:23:08;;;;;;;4.30;2.13;;;15.80;99.90;;;;;;5053911;28;20500;-89
2023/08/28 06:25:35;;;;;;;4.80;2.60;;;15.70;99.90;;;;;;5053882;28;20433;-89
2023/08/28 06:28:02;;;;;;;4.00;2.40;;;15.80;99.90;;;;;;5054039;28;20468;-90
2023/08/28 06:30:29;;;;;;;4.47;2.17;;;15.80;99.90;;;;;;5056335;28;20441;-89
2023/08/28 06:32:58;;;;;;;4.33;2.17;;;15.80;99.90;;;;;;5055855;28;20909;-89
2023/08/28 06:35:30;;;;;;;3.67;2.00;;;15.80;99.90;;;;;;5059629;28;20461;-90
2023/08/28 06:37:57;;;;;;;3.67;2.47;;;15.80;99.90;;;;;;5060278;28;20816;-91
2023/08/28 06:40:24;;;;;;;3.60;2.20;;;15.80;99.90;;;;;;5075506;28;20468;-90
2023/08/28 06:42:51;;;;;;;4.83;2.63;;;15.80;99.90;;;;;;5075936;28;20468;-90
2023/08/28 06:45:18;;;;;;;4.67;2.33;;;15.80;99.90;;;;;;5075897;28;20433;-89
2023/08/28 06:47:45;;;;;;;6.73;2.57;;;15.80;99.90;;;;;;5075936;28;20428;-90
2023/08/28 06:50:14;;;;;;;3.10;2.10;;;15.80;99.90;;;;;;5075882;28;20439;-90
2023/08/28 06:52:41;;;;;;;4.97;2.00;;;15.90;99.90;;;;;;5075492;28;20440;-87
2023/08/28 06:55:08;;;;;;;3.97;2.37;;;15.90;99.90;;;;;;5075692;28;20424;-88
2023/08/28 06:57:35;;;;;;;4.10;2.17;;;15.90;99.90;;;;;;5075249;28;20468;-85
2023/08/28 07:00:03;;;;;;;5.40;1.93;;;15.90;99.90;;;;;;5075734;28;20421;-84
2023/08/28 07:02:31;;;;;;;3.40;1.80;;;15.90;99.90;;;;;;5075172;28;20472;-85
2023/08/28 07:05:04;;;;;;;4.00;3.00;;;15.80;99.90;;;;;;5075100;28;20487;-83
2023/08/28 07:07:33;;;;;;;3.57;2.40;;;15.80;99.90;;;;;;5075391;28;20436;-84
2023/08/28 07:09:59;;;;;;;5.53;2.20;;;15.90;99.90;;;;;;5075370;28;20444;-84
2023/08/28 07:12:26;;;;;;;3.40;1.60;;;15.90;99.90;;;;;;5074572;28;20493;-84
2023/08/28 07:15:23;;;;;;;2.90;1.50;;;15.80;99.90;;;;;;5075436;28;20432;-83
2023/08/28 07:17:50;;;;;;;9.33;2.10;;;15.90;99.90;;;;;;5074366;28;20468;-85
2023/08/28 07:20:17;;;;;;;2.93;1.47;;;15.80;99.90;;;;;;5074872;28;20437;-84
2023/08/28 07:22:46;;;;;;;4.90;1.90;;;15.80;99.90;;;;;;5075294;28;20464;-84
2023/08/28 07:25:13;;;;;;;3.90;1.73;;;15.80;99.90;;;;;;5074734;28;21089;-84
2023/08/28 07:27:40;;;;;;;3.70;2.47;;;15.80;99.90;;;;;;5075064;28;20878;-83
2023/08/28 07:30:08;;;;;;;3.10;2.00;;;15.80;99.90;;;;;;5075038;28;20500;-85
2023/08/28 07:32:35;;;;;;;3.57;1.93;;;15.80;99.90;;;;;;5074742;28;20837;-84
2023/08/28 07:35:02;;;;;;;5.53;2.00;;;15.80;99.90;;;;;;5074931;28;20503;-84
2023/08/28 07:37:30;;;;;;;3.00;1.87;;;15.80;99.90;;;;;;5074893;28;20906;-85
2023/08/28 07:39:58;;;;;;;4.37;1.87;;;15.90;99.90;;;;;;5074606;28;20424;-85
2023/08/28 07:42:25;;;;;;;7.03;3.00;;;15.90;99.90;;;;;;5074688;28;20480;-85
2023/08/28 07:44:57;;;;;;;3.27;1.80;;;15.90;99.90;;;;;;5074706;28;20481;-85
2023/08/28 07:47:24;;;;;;;3.80;2.43;;;16.00;99.90;;;;;;5074382;28;20544;-84
2023/08/28 07:49:54;;;;;;;3.33;2.37;;;16.00;99.90;;;;;;5074308;28;20439;-84
2023/08/28 07:52:22;;;;;;;4.37;2.30;;;16.10;99.90;;;;;;5074724;28;20496;-84
2023/08/28 07:54:49;;;;;;;3.90;2.63;;;16.10;99.90;;;;;;5074478;28;20447;-83
2023/08/28 07:57:19;;;;;;;4.50;2.20;;;16.10;99.90;;;;;;5074041;28;20549;-83
2023/08/28 07:59:46;;;;;;;3.30;2.10;;;16.10;99.90;;;;;;5074222;28;20436;-83
2023/08/28 08:02:13;;;;;;;3.80;2.17;;;16.20;99.90;;;;;;5074407;28;20479;-84
2023/08/28 08:04:40;;;;;;;3.33;1.93;;;16.20;99.90;;;;;;5073933;28;20440;-84
2023/08/28 08:07:07;;;;;;;4.40;2.20;;;16.20;99.90;;;;;;5074534;28;20440;-84
2023/08/28 08:09:34;;;;;;;3.90;2.03;;;16.20;99.90;;;;;;5074293;28;20436;-84
2023/08/28 08:12:02;;;;;;;4.03;1.93;;;16.20;99.90;;;;;;5073787;28;20445;-84
2023/08/28 08:14:30;;;;;;;2.97;1.87;;;16.20;99.90;;;;;;5073839;28;20474;-84
2023/08/28 08:16:57;;;;;;;2.93;1.70;;;16.20;99.90;;;;;;5074099;28;20503;-84
2023/08/28 08:19:24;;;;;;;4.07;1.93;;;16.30;99.90;;;;;;5073907;28;20444;-84
2023/08/28 08:21:53;;;;;;;3.30;1.90;;;16.30;99.90;;;;;;5073593;28;20941;-84
2023/08/28 08:24:20;;;;;;;3.67;2.27;;;16.30;99.90;;;;;;5072666;28;20891;-84
2023/08/28 08:26:48;;;;;;;4.17;2.00;;;16.30;99.90;;;;;;5073511;28;20992;-85
2023/08/28 08:29:15;;;;;;;3.00;1.77;;;16.40;99.90;;;;;;5073985;28;20433;-84
2023/08/28 08:31:43;;;;;;;2.60;1.50;;;16.40;99.90;;;;;;5073760;28;20436;-84
2023/08/28 08:34:10;;;;;;;2.33;1.37;;;16.40;99.90;;;;;;5073854;28;20467;-84
2023/08/28 08:36:39;;;;;;;2.57;1.17;;;16.50;99.90;;;;;;5073404;28;20441;-84
2023/08/28 08:39:06;;;;;;;3.43;1.40;;;16.50;99.90;;;;;;5073328;28;20988;-84
2023/08/28 08:41:33;;;;;;;3.77;1.40;;;16.60;99.90;;;;;;5073610;28;20468;-85
2023/08/28 08:44:00;;;;;;;3.17;1.70;;;16.80;99.90;;;;;;5073347;28;20464;-83
2023/08/28 08:46:28;;;;;;;2.90;1.20;;;17.00;99.90;;;;;;5073230;28;20910;-84
2023/08/28 08:49:00;;;;;;;5.40;1.00;;;17.20;99.90;;;;;;5073474;28;20436;-84
2023/08/28 08:51:31;;;;;;;2.40;1.00;;;17.30;99.90;;;;;;5073565;28;20481;-85
2023/08/28 08:54:04;;;;;;;2.20;1.00;;;17.50;99.90;;;;;;5073151;28;20590;-84
2023/08/28 08:56:34;;;;;;;2.60;1.03;;;17.60;99.90;;;;;;5073188;28;20775;-84
2023/08/28 08:59:01;;;;;;;2.03;0.90;;;17.80;99.90;;;;;;5072878;28;20475;-84
2023/08/28 09:01:30;;;;;;;2.33;0.90;;;17.90;99.90;;;;;;5072955;28;20561;-85
2023/08/28 09:04:03;;;;;;;2.40;0.97;;;18.00;99.90;;;;;;5072839;28;20428;-85
2023/08/28 09:06:33;;;;;;;1.90;0.77;;;18.10;99.90;;;;;;5073056;28;20425;-85
2023/08/28 09:09:00;;;;;;;2.13;0.90;;;18.30;99.90;;;;;;5073337;28;20456;-85
2023/08/28 09:11:28;;;;;;;2.23;1.00;;;18.50;99.90;;;;;;5073234;28;20424;-85
2023/08/28 09:13:55;;;;;;;1.97;0.70;;;18.60;99.90;;;;;;5072981;28;20482;-85
2023/08/28 09:16:22;;;;;;;2.00;0.77;;;18.60;99.90;;;;;;5072972;28;20440;-85
2023/08/28 09:18:49;;;;;;;3.10;0.80;;;18.70;99.90;;;;;;5073108;28;20501;-85
2023/08/28 09:21:18;;;;;;;2.00;0.70;;;18.70;99.50;;;;;;5072742;28;20940;-85
2023/08/28 09:23:46;;;;;;;2.70;0.80;;;18.80;99.20;;;;;;5073051;28;20428;-84
2023/08/28 09:26:14;;;;;;;1.80;0.70;;;18.90;98.30;;;;;;5073396;28;20444;-84
2023/08/28 09:28:41;;;;;;;1.90;0.70;;;18.90;98.30;;;;;;5073133;28;20432;-85
2023/08/28 09:31:08;;;;;;;1.97;0.70;;;19.10;98.70;;;;;;5073225;28;20521;-84
2023/08/28 09:33:45;;;;;;;2.17;0.77;;;19.10;96.80;;;;;;5073005;28;20841;-84
2023/08/28 09:36:16;;;;;;;2.50;0.93;;;19.10;97.50;;;;;;5075320;28;20956;-84
2023/08/28 09:38:44;;;;;;;2.27;0.80;;;19.00;96.90;;;;;;5077130;28;20771;-85
2023/08/28 09:41:12;;;;;;;1.90;0.73;;;19.00;97.40;;;;;;5076726;28;20941;-85
2023/08/28 09:43:39;;;;;;;2.10;0.90;;;19.10;97.10;;;;;;5076631;28;20468;-85
2023/08/28 09:46:07;;;;;;;2.33;1.10;;;19.20;97.50;;;;;;5076750;28;20432;-84
2023/08/28 09:48:36;;;;;;;2.97;1.00;;;19.50;97.70;;;;;;5076875;28;20481;-84
2023/08/28 09:51:05;;;;;;;2.20;0.90;;;19.60;97.00;;;;;;5076648;28;20938;-84
2023/08/28 09:53:32;;;;;;;2.60;1.13;;;19.50;95.60;;;;;;5076871;28;20523;-84
2023/08/28 09:56:04;;;;;;;1.93;0.70;;;19.50;96.60;;;;;;5076980;28;20844;-84
2023/08/28 09:58:31;;;;;;;2.30;0.87;;;19.30;96.70;;;;;;5076478;28;20510;-85
2023/08/28 10:00:58;;;;;;;1.90;0.77;;;19.20;96.30;;;;;;5076835;28;20432;-84
2023/08/28 10:03:26;;;;;;;1.90;0.83;;;19.00;95.40;;;;;;5076173;28;20527;-83
2023/08/28 10:05:54;;;;;;;2.10;0.80;;;18.80;95.50;;;;;;5076636;28;20524;-83
2023/08/28 10:08:23;;;;;;;2.20;1.10;;;18.60;95.70;;;;;;5076637;28;20432;-83
2023/08/28 10:10:53;;;;;;;2.20;0.80;;;18.40;96.60;;;;;;5076378;28;20436;-85
2023/08/28 10:13:23;;;;;;;2.07;0.90;;;18.30;96.10;;;;;;5076161;28;20910;-85
2023/08/28 10:15:56;;;;;;;2.90;1.00;;;18.10;96.70;;;;;;5076578;28;20527;-85
2023/08/28 10:18:30;;;;;;;2.30;1.20;;;17.90;96.70;;;;;;5075969;28;20447;-86
2023/08/28 10:20:59;;;;;;;2.47;0.93;;;17.80;97.30;;;;;;5076404;28;20416;-85
2023/08/28 10:23:32;;;;;;;1.93;0.90;;;17.80;97.50;;;;;;5075897;28;20476;-85
2023/08/28 10:26:00;;;;;;;2.10;0.90;;;17.80;97.70;;;;;;5076499;28;20787;-85
2023/08/28 10:28:34;;;;;;;1.97;0.77;;;17.80;97.70;;;;;;5075965;28;20979;-85
2023/08/28 10:31:05;;;;;;;2.20;1.10;;;17.80;98.20;;;;;;5076249;28;20766;-85
2023/08/28 10:33:34;;;;;;;2.07;0.90;;;17.70;98.00;;;;;;5075974;28;20451;-86
2023/08/28 10:36:02;;;;;;;2.20;1.10;;;17.70;98.40;;;;;;5075762;28;20488;-86
2023/08/28 10:38:30;;;;;;;1.80;0.70;;;17.70;99.20;;;;;;5076001;28;20489;-86
2023/08/28 10:40:59;;;;;;;2.00;0.90;;;17.80;99.90;;;;;;5075677;28;20429;-84
2023/08/28 10:43:29;;;;;;;2.30;1.10;;;17.80;99.90;;;;;;5075575;28;20970;-85
2023/08/28 10:46:03;;;;;;;2.40;1.27;;;17.70;99.90;;;;;;5075555;28;20485;-85
2023/08/28 10:48:30;;;;;;;2.17;1.00;;;17.80;99.90;;;;;;5075046;28;20461;-85
2023/08/28 10:50:58;;;;;;;2.40;0.97;;;17.80;99.90;;;;;;5075839;28;20441;-85
2023/08/28 10:53:27;;;;;;;3.07;1.10;;;17.80;99.90;;;;;;5075895;28;20468;-85
2023/08/28 10:55:57;;;;;;;1.90;0.70;;;17.80;99.90;;;;;;5075732;28;20431;-85
2023/08/28 10:58:29;;;;;;;3.00;1.07;;;17.70;99.90;;;;;;5075400;28;20499;-86
2023/08/28 11:01:16;;;;;;;2.30;1.10;;;17.60;99.90;;;;;;5075394;28;20433;-86
2023/08/28 11:04:16;;;;;;;2.67;0.90;;;17.50;99.90;;;;;;5075453;28;20530;-86
2023/08/28 11:06:45;;;;;;;1.90;0.80;;;17.50;99.90;;;;;;5075743;28;20421;-86
2023/08/28 11:09:40;;;;;;;3.00;1.17;;;17.50;99.90;;;;;;5075101;28;20441;-87
2023/08/28 11:12:25;;;;;;;2.83;1.10;;;17.50;99.90;;;;;;5075620;28;20417;-86
2023/08/28 11:15:03;;;;;;;2.57;1.03;;;17.60;99.90;;;;;;5055628;28;20911;-86
2023/08/28 11:17:35;;;;;;;2.47;1.17;;;17.50;99.90;;;;;;5055641;28;20433;-86
2023/08/28 11:20:07;;;;;;;2.30;0.90;;;17.50;99.90;;;;;;5055178;28;20437;-87
2023/08/28 11:22:36;;;;;;;3.07;1.00;;;17.50;99.90;;;;;;5054924;28;20470;-86
2023/08/28 11:25:07;;;;;;;2.60;1.27;;;17.40;99.90;;;;;;5055546;28;20850;-86
2023/08/28 11:27:46;;;;;;;2.67;1.37;;;17.40;99.90;;;;;;5054824;28;20425;-86
2023/08/28 11:30:19;;;;;;;2.80;1.70;;;17.40;99.90;;;;;;5054233;28;20834;-85
2023/08/28 11:33:40;;;;;;;2.90;1.70;;;17.30;99.90;;;;;;5056187;28;20528;-85
2023/08/28 11:36:10;;;;;;;3.57;1.70;;;17.30;99.90;;;;;;5033732;28;20442;-85
2023/08/28 11:38:37;;;;;;;6.03;1.50;;;17.30;99.90;;;;;;5034980;28;20462;-85
2023/08/28 11:41:07;;;;;;;2.30;1.13;;;17.20;99.90;;;;;;5045885;28;20738;-84
2023/08/28 11:43:36;;;;;;;2.50;1.10;;;17.20;99.90;;;;;;5054398;28;20464;-86
2023/08/28 11:46:05;;;;;;;3.50;1.27;;;17.20;99.90;;;;;;5054770;28;20425;-86
2023/08/28 11:48:36;;;;;;;2.73;1.30;;;17.20;99.90;;;;;;5053576;28;20547;-85
2023/08/28 11:51:07;;;;;;;2.67;1.20;;;17.10;99.90;;;;;;5054681;28;20441;-85
2023/08/28 11:53:40;;;;;;;2.30;1.03;;;17.10;99.90;;;;;;5054333;28;20461;-86
2023/08/28 11:56:11;;;;;;;2.40;1.20;;;17.20;99.90;;;;;;5053128;28;20503;-86
2023/08/28 11:58:46;;;;;;;3.40;1.03;;;17.20;99.90;;;;;;5053531;28;21026;-86
2023/08/28 12:01:16;;;;;;;2.10;1.00;;;17.20;99.90;;;;;;5068007;28;20436;-86
2023/08/28 12:03:43;;;;;;;2.30;1.07;;;17.20;99.90;;;;;;5055990;28;20545;-85
2023/08/28 12:06:12;;;;;;;4.73;1.50;;;17.20;99.90;;;;;;5055006;28;20837;-85
2023/08/28 12:08:45;;;;;;;2.97;1.30;;;17.20;99.90;;;;;;5057131;28;20765;-85
2023/08/28 12:11:13;;;;;;;3.10;1.67;;;17.20;99.90;;;;;;5055156;28;20453;-86
2023/08/28 12:13:44;;;;;;;3.03;1.53;;;17.20;99.90;;;;;;5059109;28;20436;-85
2023/08/28 12:16:18;;;;;;;2.53;1.30;;;17.20;99.90;;;;;;5053318;28;20437;-85
2023/08/28 12:18:47;;;;;;;3.57;1.73;;;17.20;99.90;;;;;;5055228;28;20445;-86
2023/08/28 12:21:16;;;;;;;3.60;1.40;;;17.20;99.90;;;;;;5052676;28;20469;-86
2023/08/28 12:23:48;;;;;;;2.73;1.20;;;17.20;99.90;;;;;;5055146;28;20496;-86
2023/08/28 12:26:17;;;;;;;3.70;1.53;;;17.30;99.90;;;;;;5053233;28;20511;-85
2023/08/28 12:28:45;;;;;;;2.80;1.40;;;17.30;99.90;;;;;;5054851;28;20536;-85
2023/08/28 12:31:12;;;;;;;4.83;1.90;;;17.30;99.90;;;;;;5054708;28;20835;-84
2023/08/28 12:33:40;;;;;;;2.80;1.57;;;17.30;99.90;;;;;;5057110;28;20511;-86
2023/08/28 12:36:07;;;;;;;2.43;1.20;;;17.30;99.90;;;;;;5052756;28;20524;-86
2023/08/28 12:38:49;;;;;;;9.13;1.73;;;17.30;99.90;;;;;;5054775;28;20441;-85
2023/08/28 12:41:17;;;;;;;2.47;1.30;;;17.30;99.90;;;;;;5056536;28;20440;-85
2023/08/28 12:43:45;;;;;;;2.90;1.33;;;17.30;99.90;;;;;;5054515;28;20489;-85
2023/08/28 12:46:12;;;;;;;2.23;1.13;;;17.30;99.90;;;;;;5052980;28;20926;-85
2023/08/28 12:48:39;;;;;;;2.93;1.30;;;17.30;99.90;;;;;;5054519;28;20530;-86
2023/08/28 12:51:06;;;;;;;4.27;1.97;;;17.30;99.90;;;;;;5052508;28;20437;-85
2023/08/28 12:53:33;;;;;;;3.50;1.50;;;17.30;99.90;;;;;;5054665;28;20507;-86
2023/08/28 12:56:03;;;;;;;5.67;1.83;;;17.30;99.90;;;;;;5052487;28;20491;-81
2023/08/28 12:58:29;;;;;;;5.73;1.70;;;17.40;99.90;;;;;;5054559;28;20473;-85
2023/08/28 13:00:57;;;;;;;3.47;1.93;;;17.30;99.90;;;;;;5052526;28;20433;-85